createdAt,value
2022-09-24T00:01:53.154Z,18.30
2022-09-24T00:04:21.963Z,18.87
2022-09-24T00:06:50.033Z,19.27
2022-09-24T00:09:21.941Z,17.67
2022-09-24T00:11:52.380Z,20.57
2022-09-24T00:14:20.926Z,20.00
2022-09-24T00:16:49.674Z,17.83
2022-09-24T00:19:19.230Z,19.13
2022-09-24T00:21:47.327Z,23.57
2022-09-24T00:24:37.828Z,24.43
2022-09-24T00:27:06.427Z,22.53
2022-09-24T00:29:35.804Z,20.83
2022-09-24T00:32:05.487Z,23.40
2022-09-24T00:34:35.270Z,22.77
2022-09-24T00:37:03.497Z,23.23
2022-09-24T00:39:31.611Z,25.87
2022-09-24T00:41:59.611Z,24.70
2022-09-24T00:44:54.879Z,22.50
2022-09-24T00:47:35.987Z,24.50
2022-09-24T00:50:18.183Z,24.87
2022-09-24T00:52:51.027Z,26.60
2022-09-24T00:55:21.122Z,24.87
2022-09-24T00:57:52.206Z,26.10
2022-09-24T01:00:20.289Z,24.70
2022-09-24T01:02:51.353Z,26.30
2022-09-24T01:05:21.098Z,24.43
2022-09-24T01:07:49.182Z,28.63
2022-09-24T01:10:39.177Z,28.63
2022-09-24T01:13:18.205Z,27.83
2022-09-24T01:15:51.423Z,29.43
2022-09-24T01:18:28.218Z,27.53
2022-09-24T01:21:21.298Z,27.27
2022-09-24T01:24:34.078Z,29.37
2022-09-24T01:27:07.258Z,23.77
2022-09-24T01:29:47.093Z,26.77
2022-09-24T01:32:20.260Z,26.40
2022-09-24T01:34:53.016Z,28.60
2022-09-24T01:37:25.181Z,25.90
2022-09-24T01:39:55.524Z,24.17
2022-09-24T01:42:25.060Z,23.50
2022-09-24T01:44:55.988Z,24.13
2022-09-24T01:47:34.396Z,22.67
2022-09-24T01:50:04.181Z,22.80
2022-09-24T01:52:36.639Z,21.33
2022-09-24T01:55:09.030Z,21.30
2022-09-24T01:57:43.073Z,22.63
2022-09-24T02:00:16.412Z,23.47
2022-09-24T02:02:49.090Z,23.63
2022-09-24T02:05:24.169Z,25.13
2022-09-24T02:07:59.376Z,21.80
2022-09-24T02:10:32.399Z,22.80
2022-09-24T02:13:05.131Z,20.13
2022-09-24T02:15:38.373Z,23.93
2022-09-24T02:18:09.612Z,22.33
2022-09-24T02:20:41.006Z,18.33
2022-09-24T02:23:11.755Z,23.47
2022-09-24T02:25:44.172Z,21.17
2022-09-24T02:28:12.208Z,21.87
2022-09-24T02:30:49.779Z,21.97
2022-09-24T02:33:36.048Z,20.97
2022-09-24T02:36:04.381Z,19.70
2022-09-24T02:38:32.457Z,20.10
2022-09-24T02:41:00.541Z,20.40
2022-09-24T02:43:28.566Z,18.33
2022-09-24T02:45:57.939Z,18.47
2022-09-24T02:48:25.963Z,22.90
2022-09-24T02:50:53.971Z,19.73
2022-09-24T02:53:22.023Z,17.87
2022-09-24T02:55:50.070Z,18.20
2022-09-24T02:58:18.062Z,17.70
2022-09-24T03:06:08.658Z,16.67
2022-09-24T03:08:36.860Z,18.23
2022-09-24T03:11:05.231Z,17.23
2022-09-24T03:13:33.268Z,16.53
2022-09-24T03:16:01.435Z,16.93
2022-09-24T03:18:29.467Z,17.07
2022-09-24T03:20:57.970Z,17.83
2022-09-24T03:23:27.606Z,17.40
2022-09-24T03:25:58.386Z,16.70
2022-09-24T03:28:27.054Z,15.70
2022-09-24T03:31:00.275Z,16.77
2022-09-24T03:33:29.628Z,16.80
2022-09-24T03:35:58.884Z,16.83
2022-09-24T03:38:29.259Z,16.63
2022-09-24T03:40:57.826Z,15.33
2022-09-24T03:43:26.283Z,17.27
2022-09-24T03:45:55.345Z,15.63
2022-09-24T03:48:24.561Z,16.60
2022-09-24T03:50:52.866Z,19.23
2022-09-24T03:53:21.525Z,15.40
2022-09-24T03:55:55.266Z,18.77
2022-09-24T03:58:23.662Z,18.17
2022-09-24T04:00:53.598Z,19.33
2022-09-24T04:03:22.277Z,18.00
2022-09-24T04:05:51.330Z,16.87
2022-09-24T04:08:24.701Z,18.83
2022-09-24T04:10:55.345Z,18.20
2022-09-24T04:13:23.373Z,20.83
2022-09-24T04:15:51.832Z,21.10
2022-09-24T04:18:20.189Z,19.17
2022-09-24T04:28:31.250Z,22.13
2022-09-24T04:30:59.486Z,21.60
2022-09-24T04:33:28.015Z,25.73
2022-09-24T04:35:56.078Z,22.20
2022-09-24T04:38:24.103Z,24.80
2022-09-24T04:40:52.246Z,23.50
2022-09-24T04:43:20.293Z,22.57
2022-09-24T04:45:49.733Z,24.57
2022-09-24T04:48:17.768Z,24.27
2022-09-24T04:50:46.496Z,25.30
2022-09-24T04:53:14.783Z,23.77
2022-09-24T04:55:43.006Z,24.57
2022-09-24T04:58:11.359Z,25.43
2022-09-24T05:00:39.544Z,24.10
2022-09-24T05:03:09.096Z,24.10
2022-09-24T05:05:37.218Z,23.57
2022-09-24T05:08:05.273Z,24.00
2022-09-24T05:10:33.657Z,25.63
2022-09-24T05:13:02.364Z,25.27
2022-09-24T05:15:30.602Z,23.97
2022-09-24T05:17:58.855Z,26.33
2022-09-24T05:20:28.305Z,24.63
2022-09-24T05:22:56.285Z,25.87
2022-09-24T05:25:24.680Z,24.77
2022-09-24T05:27:52.885Z,23.63
2022-09-24T05:30:22.350Z,25.20
2022-09-24T05:32:52.396Z,24.37
2022-09-24T05:35:21.116Z,23.20
2022-09-24T05:37:53.419Z,21.87
2022-09-24T05:40:54.411Z,23.23
2022-09-24T05:43:22.553Z,19.77
2022-09-24T05:45:51.017Z,26.77
2022-09-24T05:48:19.067Z,23.00
2022-09-24T05:50:47.067Z,23.27
2022-09-24T05:53:16.443Z,20.33
2022-09-24T05:55:44.613Z,25.30
2022-09-24T05:58:12.753Z,23.33
2022-09-24T06:00:41.015Z,22.60
2022-09-24T06:03:13.736Z,20.67
2022-09-24T06:05:46.394Z,21.53
2022-09-24T06:08:16.868Z,21.70
2022-09-24T06:10:47.411Z,22.53
2022-09-24T06:13:18.968Z,19.70
2022-09-24T06:15:47.334Z,23.00
2022-09-24T06:18:15.484Z,23.00
2022-09-24T06:20:44.418Z,20.20
2022-09-24T06:23:12.618Z,21.67
2022-09-24T06:25:41.996Z,18.43
2022-09-24T06:28:10.011Z,19.50
2022-09-24T06:30:39.622Z,21.60
2022-09-24T06:33:09.751Z,19.17
2022-09-24T06:35:38.625Z,17.00
2022-09-24T06:38:07.801Z,18.30
2022-09-24T06:48:18.855Z,19.13
2022-09-24T06:50:47.674Z,17.37
2022-09-24T06:53:16.044Z,16.93
2022-09-24T06:55:45.158Z,18.50
2022-09-24T07:07:02.166Z,15.93
2022-09-24T07:09:31.768Z,17.37
2022-09-24T07:12:05.376Z,17.63
2022-09-24T07:14:33.408Z,17.63
2022-09-24T07:17:01.543Z,15.60
2022-09-24T07:19:29.561Z,16.53
2022-09-24T07:21:57.795Z,14.27
2022-09-24T07:24:25.848Z,15.23
2022-09-24T07:26:55.288Z,18.20
2022-09-24T07:29:23.975Z,15.43
2022-09-24T07:31:52.017Z,15.60
2022-09-24T07:34:20.216Z,20.17
2022-09-24T07:36:48.751Z,16.73
2022-09-24T07:39:16.860Z,14.90
2022-09-24T07:41:44.862Z,16.53
2022-09-24T07:44:14.696Z,18.10
2022-09-24T07:46:42.787Z,15.70
2022-09-24T07:49:10.808Z,15.23
2022-09-24T07:51:40.919Z,15.73
2022-09-24T07:54:12.749Z,17.17
2022-09-24T07:56:44.470Z,16.63
2022-09-24T07:59:13.957Z,15.50
2022-09-24T08:01:42.063Z,15.63
2022-09-24T08:04:11.587Z,16.07
2022-09-24T08:06:43.645Z,13.20
2022-09-24T08:09:16.833Z,15.57
2022-09-24T08:11:45.173Z,14.60
2022-09-24T08:14:14.623Z,15.07
2022-09-24T08:16:42.598Z,15.40
2022-09-24T08:19:14.191Z,15.47
2022-09-24T08:21:43.626Z,15.23
2022-09-24T08:24:11.724Z,17.37
2022-09-24T08:26:39.839Z,15.60
2022-09-24T08:29:07.841Z,16.40
2022-09-24T08:31:37.329Z,18.97
2022-09-24T08:34:07.384Z,27.50
2022-09-24T08:36:37.410Z,20.73
2022-09-24T08:39:12.623Z,19.07
2022-09-24T08:41:53.740Z,19.60
2022-09-24T08:44:46.214Z,15.67
2022-09-24T08:47:27.109Z,15.70
2022-09-24T08:50:08.196Z,18.17
2022-09-24T08:52:53.400Z,19.67
2022-09-24T08:55:26.957Z,17.70
2022-09-24T08:58:01.842Z,17.83
2022-09-24T09:00:36.855Z,19.13
2022-09-24T09:03:15.039Z,19.67
2022-09-24T09:05:55.177Z,18.67
2022-09-24T09:08:54.965Z,19.07
2022-09-24T09:11:29.335Z,19.77
2022-09-24T09:14:00.197Z,20.87
2022-09-24T09:16:32.032Z,19.50
2022-09-24T09:19:12.711Z,19.90
2022-09-24T09:21:42.873Z,19.70
2022-09-24T09:24:20.519Z,19.07
2022-09-24T09:26:54.589Z,20.43
2022-09-24T09:29:24.129Z,20.90
2022-09-24T09:32:04.635Z,20.53
2022-09-24T09:34:48.871Z,19.10
2022-09-24T09:37:28.189Z,22.63
2022-09-24T09:40:07.641Z,20.57
2022-09-24T09:42:37.356Z,21.93
2022-09-24T09:45:27.658Z,19.87
2022-09-24T09:47:57.678Z,20.90
2022-09-24T09:50:31.582Z,21.83
2022-09-24T09:52:59.628Z,19.97
2022-09-24T09:55:29.312Z,20.80
2022-09-24T09:58:11.239Z,20.60
2022-09-24T10:00:39.483Z,21.90
2022-09-24T10:03:07.717Z,18.97
2022-09-24T10:05:37.243Z,19.30
2022-09-24T10:08:05.321Z,20.50
2022-09-24T10:10:33.409Z,20.67
2022-09-24T10:13:09.849Z,19.73
2022-09-24T10:15:50.190Z,21.30
2022-09-24T10:18:31.210Z,17.63
2022-09-24T10:21:03.415Z,20.77
2022-09-24T10:23:37.222Z,19.83
2022-09-24T10:26:06.380Z,20.67
2022-09-24T10:29:08.303Z,18.57
2022-09-24T10:31:38.761Z,19.57
2022-09-24T10:34:19.134Z,21.10
2022-09-24T10:36:53.900Z,19.13
2022-09-24T10:39:23.311Z,19.63
2022-09-24T10:41:52.975Z,18.37
2022-09-24T10:44:22.684Z,17.90
2022-09-24T10:47:05.579Z,18.73
2022-09-24T10:49:48.052Z,19.57
2022-09-24T10:52:36.200Z,22.13
2022-09-24T10:55:15.034Z,19.07
2022-09-24T10:57:51.494Z,20.20
2022-09-24T11:00:21.938Z,19.87
2022-09-24T11:03:24.472Z,18.53
2022-09-24T11:05:55.407Z,17.73
2022-09-24T11:08:37.403Z,19.73
2022-09-24T11:11:22.622Z,20.70
2022-09-24T11:14:01.724Z,17.47
2022-09-24T11:16:56.201Z,18.07
2022-09-24T11:19:40.305Z,19.90
2022-09-24T11:22:14.043Z,18.97
2022-09-24T11:24:53.489Z,18.83
2022-09-24T11:27:49.738Z,17.10
2022-09-24T11:30:21.000Z,20.57
2022-09-24T11:33:10.661Z,18.73
2022-09-24T11:36:11.149Z,18.23
2022-09-24T11:38:53.784Z,18.33
2022-09-24T11:41:35.105Z,16.63
2022-09-24T11:44:25.736Z,17.87
2022-09-24T11:47:11.097Z,17.37
2022-09-24T11:49:57.567Z,17.60
2022-09-24T12:00:17.847Z,17.90
2022-09-24T12:02:50.935Z,18.37
2022-09-24T12:05:27.843Z,19.67
2022-09-24T12:08:00.273Z,18.63
2022-09-24T12:10:34.848Z,17.73
2022-09-24T12:13:12.634Z,19.40
2022-09-24T12:15:49.701Z,20.20
2022-09-24T12:18:22.598Z,18.73
2022-09-24T12:20:54.126Z,16.60
2022-09-24T12:23:28.147Z,15.70
2022-09-24T12:25:58.576Z,17.83
2022-09-24T12:28:51.247Z,16.67
2022-09-24T12:31:47.517Z,17.50
2022-09-24T12:34:24.696Z,18.50
2022-09-24T12:37:00.077Z,16.33
2022-09-24T12:39:33.856Z,17.30
2022-09-24T12:42:04.575Z,17.83
2022-09-24T12:56:51.732Z,15.73
2022-09-24T12:59:29.445Z,15.80
2022-09-24T13:02:14.949Z,18.53
2022-09-24T13:04:49.005Z,15.43
2022-09-24T13:07:31.234Z,16.87
2022-09-24T13:10:13.298Z,16.90
2022-09-24T13:12:41.415Z,15.02
2022-09-24T13:15:28.627Z,16.97
2022-09-24T13:18:19.406Z,16.30
2022-09-24T13:21:08.200Z,17.53
2022-09-24T13:23:47.506Z,17.60
2022-09-24T13:26:29.177Z,18.20
2022-09-24T13:28:59.352Z,15.60
2022-09-24T13:31:40.259Z,16.10
2022-09-24T13:34:18.904Z,17.43
2022-09-24T13:36:52.020Z,16.63
2022-09-24T13:39:25.529Z,16.97
2022-09-24T13:42:00.812Z,18.90
2022-09-24T13:44:34.494Z,16.23
2022-09-24T13:47:13.133Z,15.73
2022-09-24T13:49:45.795Z,18.33
2022-09-24T13:52:19.661Z,15.77
2022-09-24T13:54:53.309Z,17.90
2022-09-24T13:57:27.186Z,19.77
2022-09-24T14:00:15.604Z,17.30
2022-09-24T14:02:53.997Z,18.23
2022-09-24T14:05:23.097Z,21.13
2022-09-24T14:08:04.785Z,19.83
2022-09-24T14:10:33.754Z,16.17
2022-09-24T14:13:03.531Z,16.70
2022-09-24T14:15:31.570Z,17.77
2022-09-24T14:18:01.108Z,19.17
2022-09-24T14:20:34.206Z,19.87
2022-09-24T14:23:04.624Z,20.20
2022-09-24T14:25:36.187Z,19.50
2022-09-24T14:28:06.025Z,19.03
2022-09-24T14:30:37.391Z,20.43
2022-09-24T14:33:13.699Z,18.97
2022-09-24T14:35:46.717Z,22.00
2022-09-24T14:38:18.030Z,15.60
2022-09-24T14:40:48.452Z,11.63
2022-09-24T14:43:21.810Z,11.30
2022-09-24T14:45:51.295Z,11.67
2022-09-24T14:48:30.087Z,13.77
2022-09-24T14:50:58.201Z,12.23
2022-09-24T14:53:29.653Z,11.80
2022-09-24T14:55:58.522Z,10.57
2022-09-24T14:58:39.665Z,14.00
2022-09-24T15:01:16.270Z,12.57
2022-09-24T15:03:50.620Z,12.97
2022-09-24T15:06:22.394Z,13.03
2022-09-24T15:08:58.151Z,13.83
2022-09-24T15:11:28.819Z,12.73
2022-09-24T15:14:01.792Z,10.13
2022-09-24T15:16:32.681Z,11.00
2022-09-24T15:19:17.489Z,10.53
2022-09-24T15:21:46.248Z,9.23
2022-09-24T15:24:14.347Z,10.57
2022-09-24T15:26:45.671Z,9.13
2022-09-24T15:29:24.635Z,7.97
2022-09-24T15:31:53.278Z,8.50
2022-09-24T15:34:22.787Z,10.03
2022-09-24T15:36:55.440Z,8.63
2022-09-24T15:39:26.138Z,8.30
2022-09-24T15:41:54.241Z,7.53
2022-09-24T15:44:26.253Z,7.93
2022-09-24T15:46:58.210Z,7.30
2022-09-24T15:49:27.709Z,8.03
2022-09-24T15:52:03.312Z,7.00
2022-09-24T15:54:34.355Z,6.00
2022-09-24T15:57:02.880Z,6.40
2022-09-24T15:59:30.921Z,6.50
2022-09-24T16:02:02.585Z,5.97
2022-09-24T16:04:32.092Z,6.93
2022-09-24T16:07:00.246Z,8.37
2022-09-24T16:09:28.267Z,8.63
2022-09-24T16:11:57.596Z,6.33
2022-09-24T16:14:25.751Z,6.03
2022-09-24T16:16:55.701Z,7.17
2022-09-24T16:19:24.033Z,9.13
2022-09-24T16:21:53.427Z,7.17
2022-09-24T16:24:21.519Z,8.03
2022-09-24T16:26:49.587Z,7.53
2022-09-24T16:29:18.121Z,6.67
2022-09-24T16:31:46.882Z,6.90
2022-09-24T16:34:15.039Z,6.43
2022-09-24T16:36:43.098Z,9.27
2022-09-24T16:39:12.780Z,8.40
2022-09-24T16:41:40.860Z,6.30
2022-09-24T16:44:09.662Z,7.33
2022-09-24T16:46:37.782Z,7.10
2022-09-24T16:49:06.064Z,9.10
2022-09-24T16:51:34.231Z,10.33
2022-09-24T16:54:02.262Z,9.47
2022-09-24T16:56:31.676Z,9.97
2022-09-24T16:58:59.789Z,10.53
2022-09-24T17:01:27.965Z,8.23
2022-09-24T17:03:57.412Z,7.00
2022-09-24T17:07:28.522Z,6.27
2022-09-24T17:11:00.267Z,6.13
2022-09-24T17:13:33.116Z,7.70
2022-09-24T17:16:02.772Z,3.93
2022-09-24T17:18:30.955Z,5.63
2022-09-24T17:21:01.842Z,5.60
2022-09-24T17:23:30.371Z,3.43
2022-09-24T17:26:03.433Z,6.10
2022-09-24T17:28:35.189Z,6.57
2022-09-24T17:31:04.028Z,11.60
2022-09-24T17:33:48.431Z,5.77
2022-09-24T17:36:16.971Z,5.53
2022-09-24T17:38:44.992Z,6.93
2022-09-24T17:41:14.835Z,8.27
2022-09-24T17:43:44.204Z,7.10
2022-09-24T17:46:14.919Z,8.60
2022-09-24T17:48:45.469Z,4.83
2022-09-24T17:51:15.996Z,10.33
2022-09-24T17:53:44.611Z,6.13
2022-09-24T17:56:14.610Z,9.90
2022-09-24T17:58:46.881Z,3.90
2022-09-24T18:01:17.745Z,4.83
2022-09-24T18:03:46.694Z,5.50
2022-09-24T18:06:15.866Z,5.00
2022-09-24T18:08:45.723Z,6.67
2022-09-24T18:11:15.728Z,8.97
2022-09-24T18:13:46.065Z,3.60
2022-09-24T18:16:15.702Z,7.43
2022-09-24T18:18:44.721Z,5.57
2022-09-24T18:21:14.680Z,5.87
2022-09-24T18:23:43.193Z,6.07
2022-09-24T18:26:13.185Z,7.30
2022-09-24T18:28:42.311Z,4.60
2022-09-24T18:31:11.885Z,3.43
2022-09-24T18:33:42.373Z,3.97
2022-09-24T18:36:13.215Z,3.87
2022-09-24T18:38:41.557Z,6.00
2022-09-24T18:41:12.849Z,4.90
2022-09-24T18:43:41.885Z,3.67
2022-09-24T18:46:12.897Z,4.03
2022-09-24T18:48:42.033Z,4.33
2022-09-24T18:51:17.323Z,4.53
2022-09-24T18:53:45.705Z,2.97
2022-09-24T18:56:13.742Z,6.27
2022-09-24T18:58:42.282Z,4.67
2022-09-24T19:01:11.869Z,3.70
2022-09-24T19:03:40.000Z,6.13
2022-09-24T19:06:10.442Z,8.40
2022-09-24T19:08:38.494Z,4.27
2022-09-24T19:11:09.246Z,3.80
2022-09-24T19:13:38.718Z,4.43
2022-09-24T19:16:08.850Z,10.13
2022-09-24T19:18:38.879Z,3.57
2022-09-24T19:21:08.089Z,3.00
2022-09-24T19:23:40.238Z,5.20
2022-09-24T19:26:09.945Z,4.83
2022-09-24T19:28:40.917Z,4.63
2022-09-24T19:31:14.306Z,3.20
2022-09-24T19:33:44.230Z,6.43
2022-09-24T19:36:13.210Z,4.50
2022-09-24T19:38:42.434Z,5.70
2022-09-24T19:41:13.915Z,4.57
2022-09-24T19:43:43.695Z,6.50
2022-09-24T19:46:14.648Z,3.47
2022-09-24T19:48:46.169Z,4.23
2022-09-24T19:51:16.374Z,5.00
2022-09-24T19:53:45.145Z,5.63
2022-09-24T19:56:14.236Z,5.17
2022-09-24T19:58:42.344Z,6.07
2022-09-24T20:01:16.312Z,3.17
2022-09-24T20:03:47.119Z,6.17
2022-09-24T20:06:17.079Z,4.57
2022-09-24T20:08:46.175Z,6.87
2022-09-24T20:11:19.376Z,5.57
2022-09-24T20:13:47.826Z,5.57
2022-09-24T20:16:19.600Z,3.70
2022-09-24T20:18:50.084Z,4.67
2022-09-24T20:21:19.563Z,7.50
2022-09-24T20:23:51.703Z,5.40
2022-09-24T20:26:37.309Z,3.63
2022-09-24T20:29:09.175Z,4.27
2022-09-24T20:31:37.473Z,3.47
2022-09-24T20:34:06.840Z,5.13
2022-09-24T20:36:35.280Z,6.83
2022-09-24T20:39:03.961Z,10.07
2022-09-24T20:41:32.055Z,7.77
2022-09-24T20:44:00.147Z,2.67
2022-09-24T20:46:29.508Z,5.00
2022-09-24T20:48:59.921Z,6.37
2022-09-24T20:51:33.605Z,5.33
2022-09-24T20:54:02.690Z,5.83
2022-09-24T20:56:31.508Z,7.13
2022-09-24T20:59:00.960Z,9.53
2022-09-24T21:01:29.125Z,8.87
2022-09-24T21:03:58.283Z,5.53
2022-09-24T21:06:26.464Z,6.30
2022-09-24T21:08:55.863Z,7.03
2022-09-24T21:11:26.507Z,7.13
2022-09-24T21:13:56.282Z,4.57
2022-09-24T21:16:28.248Z,10.33
2022-09-24T21:18:56.908Z,12.40
2022-09-24T21:21:27.354Z,5.50
2022-09-24T21:23:58.806Z,8.40
2022-09-24T21:26:28.619Z,9.83
2022-09-24T21:29:00.297Z,10.17
2022-09-24T21:31:30.575Z,5.37
2022-09-24T21:33:59.283Z,4.53
2022-09-24T21:36:29.661Z,6.10
2022-09-24T21:39:00.894Z,5.70
2022-09-24T21:41:31.251Z,4.73
2022-09-24T21:44:03.182Z,7.73
2022-09-24T21:46:31.883Z,4.10
2022-09-24T21:49:01.055Z,9.00
2022-09-24T21:51:30.127Z,7.67
2022-09-24T21:54:01.765Z,9.37
2022-09-24T21:56:31.277Z,10.17
2022-09-24T21:58:59.968Z,4.87
2022-09-24T22:01:30.381Z,4.03
2022-09-24T22:04:00.397Z,4.47
2022-09-24T22:06:30.146Z,8.00
2022-09-24T22:09:05.171Z,6.13
2022-09-24T22:11:34.563Z,6.70
2022-09-24T22:14:03.387Z,6.20
2022-09-24T22:16:33.820Z,3.47
2022-09-24T22:19:06.121Z,3.60
2022-09-24T22:21:34.995Z,5.47
2022-09-24T22:24:05.092Z,5.60
2022-09-24T22:26:33.171Z,3.37
2022-09-24T22:29:01.266Z,5.43
2022-09-24T22:31:30.882Z,7.07
2022-09-24T22:34:16.504Z,7.40
2022-09-24T22:36:44.788Z,6.93
2022-09-24T22:39:14.216Z,6.23
2022-09-24T22:41:43.374Z,3.47
2022-09-24T22:44:12.471Z,7.10
2022-09-24T22:46:41.842Z,3.13
2022-09-24T22:49:10.875Z,3.87
2022-09-24T22:51:39.609Z,5.37
2022-09-24T22:54:08.890Z,5.43
2022-09-24T22:56:38.526Z,3.17
2022-09-24T22:59:06.882Z,2.50
2022-09-24T23:01:36.573Z,4.83
2022-09-24T23:04:04.858Z,4.13
2022-09-24T23:06:34.675Z,3.73
2022-09-24T23:09:03.103Z,4.90
2022-09-24T23:11:32.833Z,8.20
2022-09-24T23:14:03.985Z,4.33
2022-09-24T23:16:34.288Z,7.33
2022-09-24T23:19:04.967Z,3.73
2022-09-24T23:21:35.260Z,4.17
2022-09-24T23:24:08.196Z,6.13
2022-09-24T23:26:36.769Z,4.60
2022-09-24T23:29:06.929Z,4.40
2022-09-24T23:31:37.009Z,4.83
2022-09-24T23:34:07.556Z,8.80
2022-09-24T23:36:36.327Z,5.43
2022-09-24T23:39:05.920Z,5.00
2022-09-24T23:41:34.002Z,5.47
2022-09-24T23:44:02.468Z,6.57
2022-09-24T23:46:35.059Z,3.30
2022-09-24T23:49:03.538Z,4.87
2022-09-24T23:51:31.568Z,5.30
2022-09-24T23:53:59.983Z,4.80
2022-09-24T23:56:28.505Z,5.93
2022-09-24T23:58:57.675Z,5.83
